Etusivu
METAR-TAF:

METAR-TAF

Lentoasemat :

Cambridge Municipal Airport

Cambridge, Minnesota, Yhdysvallat

Leveyspiiri: 45-34N, Pituuspiiri: 093-16W, korkeus merenpinnasta: 287 m

Tämänhetkinen sää

Tämä raportti tehtiin 13 minuuttia sitten, kello 00.35 UTC
tyyntä
Lämpötila -2°C
Kosteus 69%
Ilmanpaine 1022 hPa
Näkyvyys: 16.1 km
selkeää

METAR: KCBG 150035Z AUTO 00000KT 10SM CLR M02/M07 A3018 RMK AO2

Aika: 18:48 (00:48 UTC)


TAF: puuttuu

Säähavainnot ja -ennusteet yli 4000 lentoasemalta (METAR- ja TAF-raportit).

Käytössä olevat sääasemat on merkitty karttaan keltaisilla ja punaisilla pisteillä.

Aseta hiiri pisteen päälle nähdäksesi sääaseman nimen.

Klikkaa sitten nähdäksesi säähavainnot ja -ennusteet.

Kartan vaihtaminen: klikkaa mustalla rastilla varustettuja vihreitä pisteitä, niin voit zoomata sisään; viivalla varustettua vihreää pistettä, niin voit zoomata ulos tai vihreitä nuolia, niin pääset viereisille kartoille.


METAR-TAF: